Time;durP1;ratioP1;P1;durP2;ratioP2;P2;SDS_P1;SDS_P2;PMS_P1;PMS_P2;Temp;Humidity;BMP_temperature;BMP_pressure;BME280_temperature;BME280_humidity;BME280_pressure;Samples;Min_cycle;Max_cycle;Signal;HPM_P1;HPM_P2
2023/07/14 00:00:31;;;;;;;7.15;2.08;;;;;;;20.53;57.16;100144.81;5037724;28;20116;-68
2023/07/14 00:02:58;;;;;;;7.03;2.05;;;;;;;20.50;56.93;100138.66;5037685;28;20030;-68
2023/07/14 00:05:28;;;;;;;7.47;2.40;;;;;;;20.49;57.05;100141.41;5036506;28;20037;-67
2023/07/14 00:07:56;;;;;;;7.47;2.30;;;;;;;20.41;57.25;100139.09;5054608;28;20100;-68
2023/07/14 00:10:26;;;;;;;6.38;2.28;;;;;;;20.34;57.13;100141.16;5051728;28;20214;-68
2023/07/14 00:12:52;;;;;;;5.60;2.00;;;;;;;20.28;57.35;100141.47;5042922;28;20025;-67
2023/07/14 00:15:20;;;;;;;7.30;2.30;;;;;;;20.23;57.87;100136.31;5042307;28;20447;-68
2023/07/14 00:17:55;;;;;;;6.07;2.08;;;;;;;20.23;57.96;100132.78;5058783;28;20047;-68
2023/07/14 00:20:24;;;;;;;5.82;2.20;;;;;;;20.23;57.96;100133.66;5057631;28;20086;-68
2023/07/14 00:22:51;;;;;;;5.40;2.20;;;;;;;20.24;57.76;100129.19;5057028;28;20021;-67
2023/07/14 00:25:17;;;;;;;7.82;2.03;;;;;;;20.22;58.10;100125.72;5044219;28;20169;-68
2023/07/14 00:27:43;;;;;;;9.17;2.40;;;;;;;20.20;58.41;100122.25;5037217;28;20242;-68
2023/07/14 00:30:28;;;;;;;6.60;2.08;;;;;;;20.18;59.05;100119.63;5036990;28;20029;-67
2023/07/14 00:32:55;;;;;;;7.40;2.60;;;;;;;20.18;58.76;100118.78;5046442;28;20033;-68
2023/07/14 00:35:29;;;;;;;6.03;1.90;;;;;;;20.14;59.69;100109.19;5057179;28;20385;-68
2023/07/14 00:37:57;;;;;;;5.00;1.95;;;;;;;20.13;59.38;100102.06;5057024;28;20030;-67
2023/07/14 00:40:38;;;;;;;7.07;1.80;;;;;;;20.11;60.12;100102.16;5053225;28;20034;-68
2023/07/14 00:43:06;;;;;;;6.38;1.90;;;;;;;20.07;59.38;100096.06;5043576;28;20039;-67
2023/07/14 00:45:34;;;;;;;4.78;1.77;;;;;;;20.07;59.44;100098.75;5047919;28;20045;-67
2023/07/14 00:48:04;;;;;;;7.67;1.80;;;;;;;20.04;59.40;100100.72;5036961;28;20036;-67
2023/07/14 00:50:34;;;;;;;8.52;1.90;;;;;;;19.98;60.31;100100.97;5036990;28;20025;-68
2023/07/14 00:53:06;;;;;;;5.40;2.25;;;;;;;19.90;60.21;100098.66;5037071;28;20036;-68
2023/07/14 00:55:45;;;;;;;5.07;1.58;;;;;;;19.87;60.32;100093.41;5044788;28;20052;-68
2023/07/14 00:58:20;;;;;;;6.38;1.90;;;;;;;19.82;60.99;100085.63;5049814;28;20029;-67
2023/07/14 01:01:02;;;;;;;7.43;2.10;;;;;;;19.71;61.85;100088.78;5034691;28;20035;-68
2023/07/14 01:03:27;;;;;;;6.78;2.20;;;;;;;19.67;61.58;100088.97;5043626;28;20089;-68
2023/07/14 01:05:53;;;;;;;5.60;1.60;;;;;;;19.62;61.69;100075.81;5056634;28;20469;-68
2023/07/14 01:08:20;;;;;;;5.32;2.30;;;;;;;19.61;62.09;100076.75;5054425;28;20028;-68
2023/07/14 01:10:46;;;;;;;5.82;1.98;;;;;;;19.56;62.38;100081.44;5055198;28;20050;-67
2023/07/14 01:13:12;;;;;;;6.17;1.83;;;;;;;19.51;62.27;100079.84;5036766;28;20033;-67
2023/07/14 01:15:40;;;;;;;4.73;2.20;;;;;;;19.51;62.50;100070.97;5043793;28;20377;-68
2023/07/14 01:18:08;;;;;;;6.22;1.70;;;;;;;19.53;62.81;100071.75;5058381;28;20025;-67
2023/07/14 01:20:37;;;;;;;5.93;2.03;;;;;;;19.55;62.72;100061.03;5056471;28;20075;-68
2023/07/14 01:23:36;;;;;;;6.70;2.25;;;;;;;19.54;63.11;100061.97;5056737;28;20025;-67
2023/07/14 01:26:23;;;;;;;4.17;1.53;;;;;;;19.51;63.53;100052.28;5036281;28;20087;-67
2023/07/14 01:28:49;;;;;;;7.15;1.90;;;;;;;19.49;63.36;100057.69;5036478;28;20017;-67
2023/07/14 01:31:20;;;;;;;5.80;2.10;;;;;;;19.40;63.72;100065.25;5036188;28;20036;-68
2023/07/14 01:33:45;;;;;;;7.32;2.20;;;;;;;19.34;63.37;100053.03;5036529;28;20394;-67
2023/07/14 01:36:11;;;;;;;6.10;1.90;;;;;;;19.35;63.81;100052.09;5036873;28;20037;-68
2023/07/14 01:38:38;;;;;;;7.38;1.85;;;;;;;19.36;63.61;100043.13;5036514;28;20040;-68
2023/07/14 01:41:05;;;;;;;5.77;2.23;;;;;;;19.38;63.48;100043.09;5041796;28;20034;-68
2023/07/14 01:43:31;;;;;;;5.43;2.05;;;;;;;19.35;63.89;100036.94;5044073;28;20473;-68
2023/07/14 01:46:02;;;;;;;4.88;2.13;;;;;;;19.36;64.07;100029.78;5046658;28;20364;-68
2023/07/14 01:48:36;;;;;;;6.53;1.90;;;;;;;19.34;64.25;100021.88;5036421;28;20037;-68
2023/07/14 01:51:08;;;;;;;5.87;1.90;;;;;;;19.35;63.71;100012.03;5036702;28;20042;-68
2023/07/14 01:53:43;;;;;;;7.72;1.95;;;;;;;19.34;64.13;100008.53;5036227;28;20083;-68
2023/07/14 01:56:13;;;;;;;5.50;2.15;;;;;;;19.30;63.96;100008.72;5049317;28;20049;-67
2023/07/14 01:58:57;;;;;;;5.35;2.13;;;;;;;19.20;64.38;99998.47;5046391;28;20029;-68
2023/07/14 02:01:24;;;;;;;5.95;2.20;;;;;;;19.18;64.47;99997.66;5035988;28;20026;-68
2023/07/14 02:03:53;;;;;;;7.00;2.17;;;;;;;19.16;64.42;99996.84;5036185;28;20085;-68
2023/07/14 02:06:19;;;;;;;5.95;2.25;;;;;;;19.15;64.52;100000.44;5040021;28;20063;-67
2023/07/14 02:08:47;;;;;;;6.77;2.27;;;;;;;19.12;64.55;99995.25;5051579;28;20029;-68
2023/07/14 02:11:18;;;;;;;6.05;2.05;;;;;;;19.08;64.88;99993.66;5055583;28;20072;-68
2023/07/14 02:13:44;;;;;;;7.30;2.45;;;;;;;19.02;64.98;99992.09;5039892;28;20034;-68
2023/07/14 02:16:15;;;;;;;6.32;2.13;;;;;;;19.00;65.17;99990.47;5052154;28;20488;-68
2023/07/14 02:18:43;;;;;;;8.05;2.30;;;;;;;19.01;64.98;99987.69;5053582;28;20037;-68
2023/07/14 02:21:11;;;;;;;6.80;2.30;;;;;;;18.99;65.25;99980.72;5059708;28;20040;-68
2023/07/14 02:23:39;;;;;;;6.47;2.20;;;;;;;18.94;65.29;99973.75;5059656;28;20495;-67
2023/07/14 02:26:21;;;;;;;5.32;2.40;;;;;;;18.90;65.77;99974.78;5040242;28;20040;-68
2023/07/14 02:28:46;;;;;;;7.65;2.55;;;;;;;18.82;66.26;99971.59;5039593;28;20028;-68
2023/07/14 02:31:22;;;;;;;8.10;2.50;;;;;;;18.73;66.50;99969.34;5039377;28;20029;-68
2023/07/14 02:33:50;;;;;;;7.40;2.40;;;;;;;18.67;66.50;99958.91;5039394;28;20076;-68
2023/07/14 02:36:52;;;;;;;7.13;2.63;;;;;;;18.62;67.88;99961.81;5039636;28;20561;-67
2023/07/14 02:39:18;;;;;;;6.53;2.30;;;;;;;18.60;66.92;99956.53;5047436;28;20060;-68
2023/07/14 02:41:43;;;;;;;6.97;2.50;;;;;;;18.63;66.70;99956.38;5044575;28;20083;-68
2023/07/14 02:44:13;;;;;;;6.83;2.10;;;;;;;18.69;66.58;99957.03;5052287;28;20021;-68
2023/07/14 02:46:56;;;;;;;6.32;2.55;;;;;;;18.72;66.63;99954.28;5044138;28;20045;-67
2023/07/14 02:49:21;;;;;;;7.35;2.70;;;;;;;18.68;66.55;99945.53;5039388;28;20033;-68
2023/07/14 02:51:47;;;;;;;9.97;2.50;;;;;;;18.67;66.42;99950.91;5037860;28;20029;-68
2023/07/14 02:54:12;;;;;;;7.70;2.40;;;;;;;18.65;66.75;99951.00;5039165;28;20022;-68
2023/07/14 02:56:37;;;;;;;5.77;2.63;;;;;;;18.63;66.43;99947.53;5052635;28;20406;-68
2023/07/14 02:59:03;;;;;;;12.23;2.87;;;;;;;18.63;66.44;99940.38;5048214;28;20033;-68
2023/07/14 03:01:32;;;;;;;7.40;2.60;;;;;;;18.60;66.80;99939.66;5038658;28;20113;-68
2023/07/14 03:03:59;;;;;;;6.22;2.60;;;;;;;18.58;66.76;99942.38;5037602;28;20029;-68
2023/07/14 03:06:24;;;;;;;6.60;2.30;;;;;;;18.59;66.67;99941.44;5043340;28;20100;-68
2023/07/14 03:08:50;;;;;;;6.10;2.50;;;;;;;18.60;66.67;99945.84;5053536;28;20033;-68
2023/07/14 03:11:16;;;;;;;9.90;2.70;;;;;;;18.60;66.76;99945.84;5057912;28;20032;-68
2023/07/14 03:13:43;;;;;;;6.32;2.10;;;;;;;18.59;66.60;99943.28;5058817;28;20032;-68
2023/07/14 03:16:08;;;;;;;5.45;2.50;;;;;;;18.53;66.69;99944.38;5054012;28;20040;-68
2023/07/14 03:18:34;;;;;;;7.57;2.50;;;;;;;18.46;67.01;99941.09;5064877;28;20022;-68
2023/07/14 03:21:03;;;;;;;7.93;2.73;;;;;;;18.43;67.02;99937.69;5058605;28;20029;-68
2023/07/14 03:23:28;;;;;;;7.70;2.20;;;;;;;18.41;67.27;99937.78;5058156;28;20032;-68
2023/07/14 03:25:55;;;;;;;5.67;2.60;;;;;;;18.38;67.41;99934.34;5039073;28;20026;-68
2023/07/14 03:28:21;;;;;;;7.30;2.95;;;;;;;18.35;67.42;99941.56;5038471;28;20009;-68
2023/07/14 03:30:47;;;;;;;5.30;2.53;;;;;;;18.33;67.48;99940.75;5038155;28;20036;-68
2023/07/14 03:33:12;;;;;;;6.57;2.43;;;;;;;18.33;67.46;99932.75;5038475;28;20029;-67
2023/07/14 03:35:37;;;;;;;7.27;2.97;;;;;;;18.32;67.57;99925.69;5037319;28;20053;-67
2023/07/14 03:38:03;;;;;;;7.13;2.50;;;;;;;18.33;67.38;99932.75;5038239;28;20092;-68
2023/07/14 03:40:29;;;;;;;7.37;2.40;;;;;;;18.35;67.45;99933.56;5041839;28;20085;-68
2023/07/14 03:42:54;;;;;;;6.82;2.40;;;;;;;18.36;67.36;99932.63;5043515;28;20028;-67
2023/07/14 03:45:20;;;;;;;7.40;2.67;;;;;;;18.40;67.23;99927.16;5049842;28;20025;-67
2023/07/14 03:47:45;;;;;;;6.93;2.40;;;;;;;18.40;67.16;99927.16;5037949;28;20029;-68
2023/07/14 03:50:13;;;;;;;7.07;2.70;;;;;;;18.38;67.14;99931.69;5037982;28;20033;-68
2023/07/14 03:52:41;;;;;;;7.93;2.67;;;;;;;18.33;67.20;99927.44;5038383;28;20028;-68
2023/07/14 03:55:07;;;;;;;8.43;2.55;;;;;;;18.30;67.34;99922.22;5043200;28;20377;-68
2023/07/14 03:57:33;;;;;;;6.85;2.72;;;;;;;18.27;67.32;99925.03;5053811;28;20119;-68
2023/07/14 04:00:11;;;;;;;6.80;2.80;;;;;;;18.24;67.67;99925.16;5038534;28;20057;-67
2023/07/14 04:02:37;;;;;;;7.03;2.50;;;;;;;18.22;67.59;99916.34;5036548;28;20036;-68
2023/07/14 04:05:02;;;;;;;6.03;2.53;;;;;;;18.22;67.37;99914.53;5038175;28;20037;-68
2023/07/14 04:07:27;;;;;;;7.53;2.30;;;;;;;18.23;67.51;99920.75;5049908;28;20052;-68
2023/07/14 04:09:53;;;;;;;7.67;2.40;;;;;;;18.25;67.42;99920.69;5047954;28;20025;-67
2023/07/14 04:12:18;;;;;;;6.68;2.72;;;;;;;18.26;67.23;99915.28;5051573;28;20029;-68
2023/07/14 04:14:44;;;;;;;6.43;2.57;;;;;;;18.25;67.22;99918.91;5037909;28;20087;-68
2023/07/14 04:17:09;;;;;;;9.33;2.60;;;;;;;18.25;67.18;99918.91;5058844;28;20020;-68
2023/07/14 04:19:34;;;;;;;6.60;2.33;;;;;;;18.24;67.21;99917.16;5057537;28;20059;-68
2023/07/14 04:22:00;;;;;;;5.60;2.10;;;;;;;18.22;67.34;99911.88;5057875;28;20104;-68
2023/07/14 04:24:25;;;;;;;9.27;2.40;;;;;;;18.20;67.14;99915.53;5051517;28;20271;-68
2023/07/14 04:26:51;;;;;;;7.60;2.50;;;;;;;18.18;67.16;99910.28;5037420;28;20411;-68
2023/07/14 04:29:16;;;;;;;5.93;2.60;;;;;;;18.14;67.12;99908.69;5037674;28;20021;-68
2023/07/14 04:31:42;;;;;;;6.50;2.37;;;;;;;18.14;67.30;99907.78;5037248;28;20260;-68
2023/07/14 04:34:07;;;;;;;6.30;2.30;;;;;;;18.16;67.15;99916.59;5036938;28;20112;-68
2023/07/14 04:36:33;;;;;;;5.60;2.50;;;;;;;18.18;67.16;99906.72;5037003;28;20036;-68
2023/07/14 04:39:06;;;;;;;7.88;2.75;;;;;;;18.15;67.20;99910.41;5035905;28;20461;-68
2023/07/14 04:41:33;;;;;;;7.57;2.40;;;;;;;18.11;67.23;99908.81;5042430;28;20060;-68
2023/07/14 04:44:07;;;;;;;5.15;2.35;;;;;;;18.12;67.35;99907.88;5048769;28;20048;-68
2023/07/14 04:46:33;;;;;;;5.82;2.17;;;;;;;18.14;67.14;99908.69;5042707;28;20029;-68
2023/07/14 04:48:58;;;;;;;14.30;2.87;;;;;;;18.17;67.01;99905.00;5037177;28;20031;-68
2023/07/14 04:51:24;;;;;;;5.28;2.60;;;;;;;18.19;67.23;99897.81;5037205;28;20029;-68
2023/07/14 04:53:49;;;;;;;8.03;2.83;;;;;;;18.15;67.60;99896.22;5037102;28;20029;-68
2023/07/14 04:56:15;;;;;;;7.53;2.80;;;;;;;18.09;67.62;99897.34;5050368;28;20057;-68
2023/07/14 04:58:40;;;;;;;7.03;2.60;;;;;;;18.10;67.60;99898.19;5046949;28;20025;-68
2023/07/14 05:01:05;;;;;;;6.57;2.60;;;;;;;18.08;67.90;99891.13;5036698;28;20067;-68
2023/07/14 05:03:31;;;;;;;5.70;2.70;;;;;;;18.12;67.65;99891.00;5042301;28;20279;-68
2023/07/14 05:05:56;;;;;;;7.77;2.73;;;;;;;18.16;67.66;99881.94;5056742;28;20029;-68
2023/07/14 05:08:22;;;;;;;4.93;2.67;;;;;;;18.26;67.19;99880.66;5055466;28;20021;-68
2023/07/14 05:10:47;;;;;;;6.77;2.83;;;;;;;18.50;66.42;99875.19;5055006;28;20031;-68
2023/07/14 05:13:13;;;;;;;9.50;2.77;;;;;;;18.75;65.86;99876.78;5036910;28;20128;-68
2023/07/14 05:15:43;;;;;;;7.57;2.60;;;;;;;18.97;65.38;99873.16;5043834;28;20259;-68
2023/07/14 05:18:08;;;;;;;6.60;2.60;;;;;;;19.18;64.49;99874.88;5049969;28;20071;-68
2023/07/14 05:20:34;;;;;;;6.10;2.47;;;;;;;19.45;63.79;99852.28;5036772;28;20029;-68
2023/07/14 05:22:59;;;;;;;7.23;2.90;;;;;;;19.68;63.35;99869.88;5036862;28;20112;-68
2023/07/14 05:25:25;;;;;;;8.70;2.43;;;;;;;19.71;63.01;99871.53;5040486;28;20477;-68
2023/07/14 05:27:50;;;;;;;6.90;2.53;;;;;;;19.68;63.40;99869.00;5036670;28;20478;-68
2023/07/14 05:30:18;;;;;;;5.25;2.00;;;;;;;19.73;62.61;99862.50;5036420;28;20075;-68
2023/07/14 05:32:45;;;;;;;6.50;2.33;;;;;;;19.76;62.37;99866.81;5036824;28;20089;-68
2023/07/14 05:35:13;;;;;;;6.70;2.47;;;;;;;19.82;62.11;99868.31;5036752;28;20041;-68
2023/07/14 05:37:39;;;;;;;5.50;2.20;;;;;;;19.85;62.46;99865.50;5036519;28;20025;-68
2023/07/14 05:40:07;;;;;;;5.28;1.90;;;;;;;19.81;62.15;99870.16;5039050;28;20112;-69
2023/07/14 05:42:33;;;;;;;6.22;2.28;;;;;;;19.89;61.78;99862.63;5038745;28;20089;-68
2023/07/14 05:44:59;;;;;;;7.40;2.10;;;;;;;19.97;61.64;99864.06;5049229;28;20028;-68
2023/07/14 05:47:24;;;;;;;9.65;1.90;;;;;;;20.05;61.55;99865.41;5039580;28;20025;-68
2023/07/14 05:49:50;;;;;;;5.97;1.73;;;;;;;20.21;61.00;99852.13;5040440;28;20029;-68
2023/07/14 05:52:16;;;;;;;6.13;2.00;;;;;;;20.36;60.66;99849.63;5040488;28;20445;-68
2023/07/14 05:54:42;;;;;;;5.60;2.20;;;;;;;20.48;60.52;99853.47;5043081;28;20033;-68
2023/07/14 05:57:07;;;;;;;5.55;1.98;;;;;;;20.59;60.60;99847.56;5060248;28;20520;-68
2023/07/14 05:59:33;;;;;;;6.07;1.90;;;;;;;20.72;60.06;99845.09;5047898;28;20032;-69
2023/07/14 06:01:58;;;;;;;4.87;1.93;;;;;;;20.91;59.76;99847.69;5059889;28;20066;-69
2023/07/14 06:04:24;;;;;;;6.43;2.10;;;;;;;21.06;59.71;99833.47;5060336;28;20024;-68
2023/07/14 06:06:50;;;;;;;6.18;2.22;;;;;;;21.20;59.66;99834.50;5060091;28;20096;-68
2023/07/14 06:09:16;;;;;;;7.20;2.20;;;;;;;21.20;59.51;99835.38;5055343;28;20024;-68
2023/07/14 06:11:42;;;;;;;8.20;2.38;;;;;;;21.14;59.60;99830.38;5050272;28;20025;-68
2023/07/14 06:14:09;;;;;;;6.03;2.07;;;;;;;21.16;59.48;99831.16;5040027;28;20068;-68
2023/07/14 06:16:34;;;;;;;5.57;2.10;;;;;;;21.25;59.77;99831.59;5049486;28;20043;-68
2023/07/14 06:19:00;;;;;;;6.45;2.08;;;;;;;21.35;59.39;99828.31;5047078;28;20028;-68
2023/07/14 06:21:25;;;;;;;5.73;2.10;;;;;;;21.39;59.68;99829.00;5046125;28;20029;-68
2023/07/14 06:23:51;;;;;;;4.97;2.03;;;;;;;21.40;59.62;99830.72;5049843;28;20025;-68
2023/07/14 06:26:16;;;;;;;5.17;2.10;;;;;;;21.55;59.48;99825.44;5043120;28;20029;-68
2023/07/14 06:28:42;;;;;;;5.83;2.27;;;;;;;21.72;59.20;99828.06;5047545;28;20252;-68
2023/07/14 06:31:11;;;;;;;7.47;2.40;;;;;;;21.87;58.79;99828.13;5047100;28;20036;-68
2023/07/14 06:33:37;;;;;;;4.73;2.10;;;;;;;21.96;58.84;99816.84;5048274;28;20115;-68
2023/07/14 06:36:03;;;;;;;6.30;2.50;;;;;;;22.04;58.63;99824.44;5056662;28;20122;-67
2023/07/14 06:38:29;;;;;;;7.13;2.37;;;;;;;22.04;58.52;99821.78;5052806;28;20025;-67
2023/07/14 06:41:05;;;;;;;5.95;2.35;;;;;;;21.94;58.88;99818.75;5044424;28;20045;-67
2023/07/14 06:43:32;;;;;;;4.82;2.10;;;;;;;21.93;58.73;99811.69;5047266;28;20035;-67
2023/07/14 06:45:58;;;;;;;5.68;1.85;;;;;;;22.02;58.80;99805.75;5045906;28;20033;-67
2023/07/14 06:48:25;;;;;;;6.87;2.10;;;;;;;22.25;58.21;99797.31;5045561;28;20029;-67
2023/07/14 06:50:51;;;;;;;6.57;2.08;;;;;;;22.41;57.89;99797.22;5045477;28;20028;-67
2023/07/14 06:53:17;;;;;;;6.07;2.00;;;;;;;22.58;57.54;99799.78;5045541;28;20501;-67
2023/07/14 06:55:43;;;;;;;8.83;2.50;;;;;;;22.74;57.31;99798.81;5044323;28;20041;-67
2023/07/14 06:58:09;;;;;;;5.80;1.88;;;;;;;22.86;56.85;99799.84;5047732;28;20477;-67
2023/07/14 07:00:35;;;;;;;6.93;2.05;;;;;;;22.96;56.73;99795.66;5046650;28;20040;-68
2023/07/14 07:03:04;;;;;;;6.97;2.10;;;;;;;23.11;56.26;99790.25;5045014;28;20033;-67
2023/07/14 07:05:35;;;;;;;6.70;1.90;;;;;;;23.25;55.89;99778.59;5046864;28;20074;-67
2023/07/14 07:08:00;;;;;;;4.50;1.90;;;;;;;23.31;55.99;99779.09;5060707;28;20068;-67
2023/07/14 07:10:27;;;;;;;4.73;2.00;;;;;;;23.40;55.56;99791.06;5052985;28;20053;-67
2023/07/14 07:12:53;;;;;;;4.85;1.90;;;;;;;23.49;55.36;99790.47;5046715;28;20918;-67
2023/07/14 07:15:18;;;;;;;5.50;1.70;;;;;;;23.64;55.18;99779.66;5049126;28;20397;-67
2023/07/14 07:17:44;;;;;;;5.68;1.85;;;;;;;23.74;54.69;99783.44;5046306;28;20030;-67
2023/07/14 07:20:10;;;;;;;5.53;2.20;;;;;;;23.83;54.48;99778.44;5047303;28;20043;-68
2023/07/14 07:22:36;;;;;;;5.97;1.90;;;;;;;23.89;54.72;99778.00;5044230;28;20044;-67
2023/07/14 07:25:02;;;;;;;4.83;1.70;;;;;;;24.00;54.21;99774.59;5047640;28;20025;-67
2023/07/14 07:27:28;;;;;;;6.53;1.80;;;;;;;24.14;53.81;99776.38;5047333;28;20017;-67
2023/07/14 07:29:54;;;;;;;6.88;1.88;;;;;;;24.37;53.55;99766.72;5046145;28;20444;-67
2023/07/14 07:32:20;;;;;;;7.93;1.93;;;;;;;24.56;53.28;99762.69;5042342;28;20033;-67
2023/07/14 07:34:45;;;;;;;7.63;2.40;;;;;;;24.72;52.97;99754.41;5050009;28;20025;-68
2023/07/14 07:37:10;;;;;;;6.33;1.90;;;;;;;24.78;52.77;99752.16;5040777;28;20036;-69
2023/07/14 07:39:37;;;;;;;6.57;2.10;;;;;;;24.94;52.59;99748.34;5040988;28;20032;-69
2023/07/14 07:42:04;;;;;;;6.65;1.80;;;;;;;25.11;52.03;99754.34;5040896;28;20031;-70
2023/07/14 07:44:30;;;;;;;5.65;1.88;;;;;;;25.24;51.61;99755.16;5054075;28;20025;-70
2023/07/14 07:46:55;;;;;;;5.00;2.20;;;;;;;25.28;51.64;99753.09;5044391;28;20026;-70
2023/07/14 07:49:21;;;;;;;7.37;1.90;;;;;;;25.34;51.24;99749.94;5058134;28;20036;-69
2023/07/14 07:51:47;;;;;;;5.90;1.70;;;;;;;25.46;51.22;99749.03;5057940;28;20028;-69
2023/07/14 07:54:13;;;;;;;5.85;1.90;;;;;;;25.71;50.99;99749.91;5051639;28;20025;-69
2023/07/14 07:56:43;;;;;;;4.00;1.73;;;;;;;25.98;50.35;99737.97;5039340;28;20053;-69
2023/07/14 07:59:15;;;;;;;4.22;1.70;;;;;;;26.24;49.78;99743.22;5046818;28;20160;-70
2023/07/14 08:01:42;;;;;;;5.90;1.73;;;;;;;26.48;49.55;99732.28;5037576;28;20108;-70
2023/07/14 08:04:07;;;;;;;7.20;1.80;;;;;;;26.64;48.02;99731.91;5038095;28;20036;-70
2023/07/14 08:06:34;;;;;;;5.20;2.40;;;;;;;26.67;47.19;99727.28;5043510;28;20025;-69
2023/07/14 08:09:00;;;;;;;5.22;1.60;;;;;;;26.66;45.70;99726.41;5051015;28;20017;-72
2023/07/14 08:11:25;;;;;;;3.80;1.60;;;;;;;26.65;45.08;99728.28;5055610;28;20036;-69
2023/07/14 08:13:50;;;;;;;3.27;1.30;;;;;;;26.71;45.22;99724.19;5036724;28;20031;-70
2023/07/14 08:16:17;;;;;;;5.57;1.90;;;;;;;26.79;45.24;99727.16;5045869;28;20553;-69
2023/07/14 08:18:43;;;;;;;6.35;1.65;;;;;;;26.98;44.59;99714.00;5063195;28;20109;-69
2023/07/14 08:21:08;;;;;;;6.57;1.70;;;;;;;27.05;43.24;99707.09;5057549;28;20084;-69
2023/07/14 08:23:36;;;;;;;4.70;1.60;;;;;;;27.06;43.45;99706.13;5056175;28;20396;-69
2023/07/14 08:26:04;;;;;;;4.38;1.23;;;;;;;27.10;42.13;99702.16;5037748;28;20516;-69
2023/07/14 08:28:29;;;;;;;5.57;1.35;;;;;;;27.17;42.16;99698.00;5036155;28;20022;-69
2023/07/14 08:31:02;;;;;;;4.80;1.30;;;;;;;27.22;42.22;99705.69;5035949;28;20021;-69
2023/07/14 08:33:27;;;;;;;3.80;1.50;;;;;;;27.31;41.53;99691.44;5037631;28;20478;-73
2023/07/14 08:35:54;;;;;;;5.18;1.55;;;;;;;27.43;41.04;99692.25;5037436;28;20375;-74
2023/07/14 08:38:20;;;;;;;5.50;1.40;;;;;;;27.58;40.90;99689.25;5035845;28;20037;-74
2023/07/14 08:40:52;;;;;;;8.27;1.50;;;;;;;27.72;40.91;99691.63;5042520;28;20022;-73
2023/07/14 08:43:43;;;;;;;4.78;1.40;;;;;;;27.92;40.46;99687.19;5044135;28;20029;-72
2023/07/14 08:46:26;;;;;;;4.57;1.30;;;;;;;28.09;40.00;99682.19;5037070;28;20025;-72
2023/07/14 08:49:01;;;;;;;5.55;1.40;;;;;;;28.19;40.21;99682.25;5043909;28;20472;-72
2023/07/14 08:51:40;;;;;;;3.77;1.30;;;;;;;28.33;40.12;99672.91;5057158;28;20066;-73
2023/07/14 08:54:15;;;;;;;7.20;1.50;;;;;;;28.45;37.77;99674.53;5050867;28;20037;-72
2023/07/14 08:56:41;;;;;;;5.60;1.33;;;;;;;28.58;39.07;99679.72;5043126;28;20060;-72
2023/07/14 08:59:15;;;;;;;5.72;1.50;;;;;;;28.64;37.22;99676.47;5048340;28;20029;-71
2023/07/14 09:01:49;;;;;;;4.90;1.30;;;;;;;28.61;37.32;99671.31;5039012;28;20033;-71
2023/07/14 09:04:24;;;;;;;5.53;1.20;;;;;;;28.63;38.12;99668.47;5037206;28;20512;-72
2023/07/14 09:06:49;;;;;;;4.40;1.40;;;;;;;28.71;37.95;99665.06;5044938;28;20025;-72
2023/07/14 09:09:41;;;;;;;4.63;1.47;;;;;;;28.75;37.70;99671.91;5048235;28;20029;-72
2023/07/14 09:12:30;;;;;;;7.13;1.50;;;;;;;28.90;37.34;99661.56;5037520;28;20073;-72
2023/07/14 09:15:00;;;;;;;4.60;1.30;;;;;;;29.12;37.14;99660.47;5044624;28;20096;-72
2023/07/14 09:17:29;;;;;;;4.47;1.40;;;;;;;29.29;37.52;99658.91;5050058;28;20037;-72
2023/07/14 09:20:31;;;;;;;7.00;1.25;;;;;;;29.37;36.88;99655.47;5036767;28;20029;-72
2023/07/14 09:23:15;;;;;;;4.73;1.40;;;;;;;29.53;37.80;99654.03;5044500;28;20524;-71
2023/07/14 09:25:50;;;;;;;6.45;1.48;;;;;;;29.75;36.32;99644.75;5041536;28;20083;-71
2023/07/14 09:28:29;;;;;;;3.97;1.50;;;;;;;29.79;36.45;99649.75;5037855;28;20457;-71
2023/07/14 09:30:58;;;;;;;6.88;1.60;;;;;;;29.99;36.45;99648.84;5036585;28;20022;-71
2023/07/14 09:33:26;;;;;;;5.10;1.85;;;;;;;30.13;35.56;99645.66;5038186;28;20024;-71
2023/07/14 09:35:51;;;;;;;4.77;1.50;;;;;;;30.17;35.54;99640.78;5045569;28;20029;-70
2023/07/14 09:38:34;;;;;;;4.70;1.20;;;;;;;30.35;35.89;99636.28;5052687;28;20079;-70
2023/07/14 09:41:02;;;;;;;5.10;1.47;;;;;;;30.45;36.04;99646.22;5046411;28;20045;-70
2023/07/14 09:43:28;;;;;;;4.75;1.55;;;;;;;30.49;34.93;99642.22;5043371;28;20024;-72
2023/07/14 09:45:54;;;;;;;4.20;1.30;;;;;;;30.53;35.88;99645.47;5055243;28;20087;-69
2023/07/14 09:48:26;;;;;;;6.15;1.80;;;;;;;30.62;34.97;99634.59;5056491;28;20017;-70
2023/07/14 09:51:03;;;;;;;5.95;1.70;;;;;;;30.53;35.69;99642.78;5056524;28;20051;-69
2023/07/14 09:53:31;;;;;;;4.80;1.80;;;;;;;30.65;35.41;99638.88;5055794;28;20032;-69
2023/07/14 09:56:16;;;;;;;4.30;1.48;;;;;;;30.67;35.12;99625.13;5036439;28;20136;-69
2023/07/14 09:58:52;;;;;;;4.60;1.70;;;;;;;30.79;34.65;99626.63;5046108;28;20030;-69
2023/07/14 10:01:17;;;;;;;5.95;1.63;;;;;;;30.89;34.84;99627.41;5035961;28;20029;-69
2023/07/14 10:03:51;;;;;;;5.80;1.93;;;;;;;30.99;34.95;99629.19;5036212;28;20033;-69
2023/07/14 10:06:28;;;;;;;8.07;1.83;;;;;;;31.05;34.80;99624.00;5038582;28;20074;-69
2023/07/14 10:08:54;;;;;;;5.97;1.70;;;;;;;31.29;35.21;99619.81;5050313;28;20101;-71
2023/07/14 10:11:38;;;;;;;5.90;1.47;;;;;;;31.26;33.54;99609.25;5036298;28;20087;-71
2023/07/14 10:14:21;;;;;;;6.10;1.70;;;;;;;31.46;34.56;99614.50;5034838;28;20283;-71
2023/07/14 10:16:47;;;;;;;6.90;1.63;;;;;;;31.63;34.70;99605.47;5052241;28;20031;-70
2023/07/14 10:19:21;;;;;;;5.00;1.80;;;;;;;31.79;34.30;99618.34;5057579;28;20029;-70
2023/07/14 10:21:54;;;;;;;5.93;1.88;;;;;;;31.81;34.19;99604.56;5056127;28;20032;-71
2023/07/14 10:24:21;;;;;;;5.30;1.80;;;;;;;31.93;33.91;99606.00;5051124;28;20029;-70
2023/07/14 10:26:57;;;;;;;6.22;1.55;;;;;;;31.93;33.14;99600.56;5041264;28;20029;-70
2023/07/14 10:29:25;;;;;;;5.63;1.40;;;;;;;32.15;33.76;99597.44;5038884;28;20032;-70
2023/07/14 10:32:14;;;;;;;5.50;1.63;;;;;;;32.18;34.13;99599.81;5042521;28;20034;-71
2023/07/14 10:34:57;;;;;;;5.90;1.98;;;;;;;32.32;33.88;99596.50;5049055;28;20036;-71
2023/07/14 10:37:35;;;;;;;6.00;1.97;;;;;;;32.42;33.39;99588.22;5054541;28;20083;-70
2023/07/14 10:40:14;;;;;;;5.70;1.73;;;;;;;32.53;33.53;99597.94;5045321;28;20028;-71
2023/07/14 10:43:04;;;;;;;4.95;1.50;;;;;;;32.68;32.72;99597.31;5058180;28;20115;-71
2023/07/14 10:45:34;;;;;;;4.65;1.63;;;;;;;32.75;33.06;99588.28;5052595;28;20037;-72
2023/07/14 10:48:14;;;;;;;4.88;1.70;;;;;;;32.87;32.82;99597.00;5039440;28;20025;-69
2023/07/14 10:50:46;;;;;;;5.20;1.63;;;;;;;32.92;33.24;99591.94;5042489;28;20033;-69
2023/07/14 10:53:28;;;;;;;5.85;1.80;;;;;;;32.99;32.79;99594.81;5055219;28;20033;-71
2023/07/14 10:55:59;;;;;;;6.05;1.70;;;;;;;33.16;32.83;99590.25;5039270;28;20046;-71
2023/07/14 10:58:54;;;;;;;6.47;1.98;;;;;;;33.15;31.93;99593.13;5051702;28;20485;-71
2023/07/14 11:01:35;;;;;;;31.33;13.77;;;;;;;33.17;32.06;99586.50;5038430;28;20083;-70
2023/07/14 11:04:24;;;;;;;10.90;4.50;;;;;;;33.32;33.41;99578.47;5039409;28;20029;-71
2023/07/14 11:06:53;;;;;;;6.20;2.20;;;;;;;33.52;32.20;99586.34;5044169;28;20033;-70
2023/07/14 11:09:19;;;;;;;6.32;1.98;;;;;;;33.63;32.30;99580.50;5046647;28;20052;-71
2023/07/14 11:12:08;;;;;;;5.27;1.57;;;;;;;33.70;32.56;99577.94;5057420;28;20474;-71
2023/07/14 11:14:56;;;;;;;4.88;2.00;;;;;;;33.74;32.36;99576.53;5038891;28;20041;-70
2023/07/14 11:17:37;;;;;;;6.15;1.80;;;;;;;33.87;32.27;99572.41;5054632;28;20036;-70
2023/07/14 11:20:22;;;;;;;5.55;2.00;;;;;;;33.93;31.84;99561.63;5058789;28;20021;-70
2023/07/14 11:22:54;;;;;;;5.97;1.73;;;;;;;34.04;31.89;99565.91;5058777;28;20032;-71
2023/07/14 11:25:25;;;;;;;6.32;1.80;;;;;;;34.19;31.54;99562.44;5045676;28;20037;-71
2023/07/14 11:28:00;;;;;;;4.38;1.60;;;;;;;34.26;31.06;99557.09;5045753;28;20048;-72
2023/07/14 11:30:32;;;;;;;5.35;1.85;;;;;;;34.29;30.97;99551.28;5058389;28;20075;-71
2023/07/14 11:33:10;;;;;;;4.72;1.95;;;;;;;34.37;31.07;99553.13;5058896;28;20068;-70
2023/07/14 11:35:43;;;;;;;5.43;1.70;;;;;;;34.45;31.35;99553.06;5056119;28;20040;-71
2023/07/14 11:38:21;;;;;;;5.80;2.00;;;;;;;34.49;31.64;99540.78;5047408;28;20029;-71
2023/07/14 11:40:49;;;;;;;6.95;2.00;;;;;;;34.66;31.20;99541.50;5051607;28;20052;-71
2023/07/14 11:43:22;;;;;;;7.10;2.20;;;;;;;34.73;31.30;99534.28;5058370;28;20492;-71